Time;durP1;ratioP1;P1;durP2;ratioP2;P2;SDS_P1;SDS_P2;PMS_P1;PMS_P2;Temp;Humidity;BMP_temperature;BMP_pressure;BME280_temperature;BME280_humidity;BME280_pressure;Samples;Min_cycle;Max_cycle;Signal;HPM_P1;HPM_P2
2023/01/10 00:01:31;;;;;;;18.03;10.57;;;6.80;99.90;;;;;;5012404;28;20228;-87
2023/01/10 00:04:00;;;;;;;16.77;9.77;;;6.60;99.90;;;;;;5011686;28;20586;-88
2023/01/10 00:06:26;;;;;;;24.40;11.00;;;6.60;99.90;;;;;;5026174;28;20207;-86
2023/01/10 00:08:53;;;;;;;24.70;12.17;;;6.70;99.90;;;;;;5019772;28;20675;-86
2023/01/10 00:14:04;;;;;;;21.43;12.13;;;6.70;99.90;;;;;;5012644;28;20687;-87
2023/01/10 00:16:31;;;;;;;22.03;12.77;;;6.70;99.90;;;;;;5021591;28;20212;-87
2023/01/10 00:18:59;;;;;;;22.50;12.73;;;6.80;99.90;;;;;;5011439;28;20204;-87
2023/01/10 00:21:27;;;;;;;23.43;12.33;;;6.80;99.90;;;;;;5017113;28;20320;-88
2023/01/10 00:23:54;;;;;;;22.63;12.17;;;6.70;99.90;;;;;;5030441;28;20234;-87
2023/01/10 00:26:21;;;;;;;25.67;12.73;;;6.70;99.90;;;;;;5015468;28;20279;-87
2023/01/10 00:28:47;;;;;;;22.10;11.73;;;6.80;99.90;;;;;;5005136;28;20200;-88
2023/01/10 00:31:15;;;;;;;20.20;11.50;;;6.70;99.90;;;;;;5015687;28;20208;-87
2023/01/10 00:33:42;;;;;;;22.07;12.27;;;6.70;99.90;;;;;;5015757;28;20204;-86
2023/01/10 00:36:11;;;;;;;20.93;12.73;;;6.70;99.90;;;;;;5015878;28;20650;-87
2023/01/10 00:38:38;;;;;;;21.23;12.50;;;6.70;99.90;;;;;;5014878;28;20220;-87
2023/01/10 00:43:55;;;;;;;23.47;12.33;;;6.70;99.90;;;;;;5015843;28;20224;-88
2023/01/10 00:43:55;;;;;;;21.20;11.83;;;6.70;99.90;;;;;;5003134;28;20209;-88
2023/01/10 00:46:23;;;;;;;18.53;11.80;;;6.70;99.90;;;;;;5015495;28;20224;-88
2023/01/10 00:48:49;;;;;;;20.30;13.33;;;6.70;99.90;;;;;;5014673;28;20204;-88
2023/01/10 00:51:18;;;;;;;23.00;12.57;;;6.60;99.90;;;;;;5022821;28;20218;-87
2023/01/10 00:53:44;;;;;;;21.40;12.47;;;6.60;99.90;;;;;;5015186;28;20200;-87
2023/01/10 00:56:11;;;;;;;20.47;12.07;;;6.60;99.90;;;;;;5014702;28;20208;-87
2023/01/10 00:58:38;;;;;;;22.23;11.97;;;6.60;99.90;;;;;;5015033;28;20216;-88
2023/01/10 01:01:05;;;;;;;21.07;11.70;;;6.60;99.90;;;;;;5015311;28;20224;-87
2023/01/10 01:03:32;;;;;;;17.70;10.80;;;6.60;99.90;;;;;;5014922;28;20287;-88
2023/01/10 01:06:04;;;;;;;21.37;12.00;;;6.60;99.90;;;;;;5015353;28;20208;-88
2023/01/10 01:08:33;;;;;;;19.23;10.83;;;6.60;99.90;;;;;;5014520;28;20275;-87
2023/01/10 01:10:59;;;;;;;18.47;10.80;;;6.60;99.90;;;;;;5015168;28;20204;-88
2023/01/10 01:13:26;;;;;;;17.90;10.47;;;6.60;99.90;;;;;;5014990;28;20216;-88
2023/01/10 01:15:57;;;;;;;17.37;10.20;;;6.60;99.90;;;;;;5015164;28;20227;-89
2023/01/10 01:18:23;;;;;;;17.43;10.53;;;6.60;99.90;;;;;;5015718;28;20208;-87
2023/01/10 01:20:53;;;;;;;17.87;10.33;;;6.60;99.90;;;;;;5022024;28;20229;-88
2023/01/10 01:23:20;;;;;;;17.37;10.57;;;6.50;99.90;;;;;;5028610;28;20235;-88
2023/01/10 01:25:52;;;;;;;17.17;10.03;;;6.50;99.90;;;;;;5023598;28;20200;-88
2023/01/10 01:28:19;;;;;;;15.53;10.13;;;6.60;99.90;;;;;;5026756;28;20231;-87
2023/01/10 01:30:45;;;;;;;16.60;9.87;;;6.60;99.90;;;;;;5023023;28;20189;-88
2023/01/10 01:33:12;;;;;;;19.20;10.20;;;6.60;99.90;;;;;;5013734;28;20216;-88
2023/01/10 01:35:42;;;;;;;18.03;10.53;;;6.60;99.90;;;;;;5006012;28;20200;-88
2023/01/10 01:38:09;;;;;;;17.50;10.37;;;6.70;99.90;;;;;;5013991;28;20227;-88
2023/01/10 01:40:37;;;;;;;20.53;10.83;;;6.60;99.90;;;;;;5014484;28;20235;-88
2023/01/10 01:43:19;;;;;;;20.67;10.53;;;6.60;99.90;;;;;;5014679;28;20208;-88
2023/01/10 01:45:47;;;;;;;19.87;10.80;;;6.60;99.90;;;;;;5014706;28;20215;-88
2023/01/10 01:48:21;;;;;;;15.30;8.77;;;6.60;99.90;;;;;;5014015;28;20236;-88
2023/01/10 01:50:53;;;;;;;15.93;9.37;;;6.60;99.90;;;;;;5014480;28;20636;-87
2023/01/10 01:53:24;;;;;;;15.80;9.50;;;6.60;99.90;;;;;;5013426;28;20199;-88
2023/01/10 01:55:53;;;;;;;16.07;9.33;;;6.60;99.90;;;;;;5019297;28;20204;-88
2023/01/10 01:58:28;;;;;;;16.93;8.20;;;6.60;99.90;;;;;;5030129;28;20724;-88
2023/01/10 02:00:57;;;;;;;13.30;8.10;;;6.60;99.90;;;;;;5007809;28;20219;-88
2023/01/10 02:03:24;;;;;;;17.33;8.17;;;6.50;99.90;;;;;;5014509;28;20270;-88
2023/01/10 02:05:51;;;;;;;16.50;8.80;;;6.50;99.90;;;;;;5014456;28;20225;-88
2023/01/10 02:08:18;;;;;;;16.60;9.47;;;6.60;99.90;;;;;;5014058;28;20595;-87
2023/01/10 02:10:51;;;;;;;14.70;7.90;;;6.60;99.90;;;;;;5013994;28;20200;-86
2023/01/10 02:13:23;;;;;;;16.10;8.23;;;6.60;99.90;;;;;;5014187;28;20294;-86
2023/01/10 02:15:50;;;;;;;15.67;8.37;;;6.60;99.90;;;;;;5013925;28;20216;-86
2023/01/10 02:18:17;;;;;;;17.90;8.63;;;6.50;99.90;;;;;;5013934;28;20224;-87
2023/01/10 02:20:58;;;;;;;16.37;8.10;;;6.50;99.90;;;;;;5014294;28;20231;-87
2023/01/10 02:23:54;;;;;;;14.47;7.67;;;6.40;99.90;;;;;;5013891;28;20208;-88
2023/01/10 02:27:12;;;;;;;14.90;6.97;;;6.40;99.90;;;;;;5012690;28;20223;-87
2023/01/10 02:30:26;;;;;;;12.33;6.93;;;6.40;99.90;;;;;;5010938;28;20677;-86
2023/01/10 02:32:59;;;;;;;12.97;6.83;;;6.50;99.90;;;;;;5008511;28;20284;-89
2023/01/10 02:35:40;;;;;;;12.47;6.67;;;6.60;99.90;;;;;;5012803;28;20215;-87
2023/01/10 02:38:16;;;;;;;14.17;7.27;;;6.60;99.90;;;;;;4993911;28;20239;-87
2023/01/10 02:40:51;;;;;;;13.43;7.30;;;6.60;99.90;;;;;;4994686;28;20205;-89
2023/01/10 02:43:22;;;;;;;13.80;6.67;;;6.60;99.90;;;;;;4993600;28;20200;-88
2023/01/10 02:45:54;;;;;;;13.07;7.03;;;6.50;99.90;;;;;;5014630;28;20216;-87
2023/01/10 02:48:23;;;;;;;16.17;7.03;;;6.50;99.90;;;;;;5022068;28;20231;-88
2023/01/10 02:50:56;;;;;;;11.50;6.87;;;6.50;99.90;;;;;;5013910;28;20200;-87
2023/01/10 02:53:27;;;;;;;12.17;6.50;;;6.50;99.90;;;;;;5013573;28;20218;-88
2023/01/10 02:56:24;;;;;;;13.57;7.13;;;6.50;99.90;;;;;;5014605;28;20548;-89
2023/01/10 02:59:11;;;;;;;13.93;7.03;;;6.50;99.90;;;;;;5014161;28;20216;-89
2023/01/10 03:01:45;;;;;;;12.83;7.33;;;6.50;99.90;;;;;;5014647;28;20212;-88
2023/01/10 03:04:24;;;;;;;11.13;7.07;;;6.50;99.90;;;;;;5014252;28;20204;-88
2023/01/10 03:06:58;;;;;;;15.00;7.70;;;6.50;99.90;;;;;;5014735;28;20228;-89
2023/01/10 03:09:29;;;;;;;14.03;7.43;;;6.50;99.90;;;;;;5015149;28;20216;-88
2023/01/10 03:12:02;;;;;;;11.27;7.00;;;6.50;99.90;;;;;;5023853;28;20193;-88
2023/01/10 03:14:31;;;;;;;9.90;5.87;;;6.50;99.90;;;;;;5014969;28;20699;-88
2023/01/10 03:17:02;;;;;;;14.33;6.70;;;6.50;99.90;;;;;;5016036;28;20224;-88
2023/01/10 03:19:35;;;;;;;11.57;5.60;;;6.50;99.90;;;;;;5016306;28;20267;-88
2023/01/10 03:22:04;;;;;;;11.43;5.50;;;6.50;99.90;;;;;;5016024;28;20232;-88
2023/01/10 03:24:35;;;;;;;9.97;4.93;;;6.50;99.90;;;;;;5016555;28;20553;-87
2023/01/10 03:27:06;;;;;;;11.43;5.37;;;6.50;99.90;;;;;;5015818;28;20224;-88
2023/01/10 03:29:42;;;;;;;10.87;5.27;;;6.50;99.90;;;;;;5016304;28;20200;-88
2023/01/10 03:32:12;;;;;;;9.50;4.43;;;6.50;99.90;;;;;;5016933;28;20200;-88
2023/01/10 03:34:41;;;;;;;8.50;4.07;;;6.50;99.90;;;;;;5035366;28;20208;-89
2023/01/10 03:37:13;;;;;;;8.93;3.80;;;6.50;99.90;;;;;;5030585;28;20224;-88
2023/01/10 03:39:49;;;;;;;7.13;3.23;;;6.40;99.90;;;;;;5020438;28;20205;-88
2023/01/10 03:42:23;;;;;;;8.13;3.30;;;6.40;99.90;;;;;;5012390;28;20228;-87
2023/01/10 03:44:57;;;;;;;7.53;3.00;;;6.40;99.90;;;;;;5013216;28;20204;-88
2023/01/10 03:47:30;;;;;;;4.57;2.60;;;6.40;99.90;;;;;;5013218;28;20317;-87
2023/01/10 03:50:03;;;;;;;4.83;2.33;;;6.40;99.90;;;;;;5012383;28;20673;-87
2023/01/10 03:52:32;;;;;;;4.67;2.50;;;6.30;99.90;;;;;;5012811;28;20200;-88
2023/01/10 03:55:01;;;;;;;6.40;2.30;;;6.30;99.90;;;;;;5013229;28;20205;-89
2023/01/10 03:57:31;;;;;;;6.23;2.50;;;6.30;99.90;;;;;;5013245;28;20228;-91
2023/01/10 04:00:00;;;;;;;6.27;2.73;;;6.30;99.90;;;;;;5018851;28;20192;-87
2023/01/10 04:02:29;;;;;;;8.30;2.83;;;6.20;99.90;;;;;;5033166;28;20215;-88
2023/01/10 04:04:58;;;;;;;9.83;3.17;;;6.30;99.90;;;;;;5023797;28;20557;-90
2023/01/10 04:07:25;;;;;;;9.20;2.97;;;6.30;99.90;;;;;;5017512;28;20263;-91
2023/01/10 04:09:51;;;;;;;7.37;2.97;;;6.30;99.90;;;;;;5013837;28;20201;-90
2023/01/10 04:12:18;;;;;;;9.30;3.57;;;6.30;99.90;;;;;;5010099;28;20207;-90
2023/01/10 04:14:46;;;;;;;11.03;4.10;;;6.20;99.90;;;;;;5017083;28;20222;-90
2023/01/10 04:17:14;;;;;;;10.03;3.30;;;6.20;99.90;;;;;;5016331;28;20220;-90
2023/01/10 04:19:40;;;;;;;4.73;2.73;;;6.20;99.90;;;;;;5016337;28;20287;-91
2023/01/10 04:22:10;;;;;;;6.30;3.10;;;6.30;99.90;;;;;;5016885;28;20238;-90
2023/01/10 04:24:37;;;;;;;7.07;3.37;;;6.40;99.90;;;;;;5016450;28;20640;-92
2023/01/10 04:27:07;;;;;;;9.27;3.47;;;6.40;99.90;;;;;;5017625;28;20228;-89
2023/01/10 04:29:34;;;;;;;8.17;3.77;;;6.40;99.90;;;;;;5016333;28;20203;-90
2023/01/10 04:32:01;;;;;;;9.60;3.30;;;6.40;99.90;;;;;;5016453;28;20447;-91
2023/01/10 04:34:27;;;;;;;9.00;3.37;;;6.50;99.90;;;;;;5016593;28;20212;-91
2023/01/10 04:36:54;;;;;;;7.80;3.07;;;6.40;99.90;;;;;;5016401;28;20236;-91
2023/01/10 04:39:22;;;;;;;9.37;3.20;;;6.40;99.90;;;;;;5016870;28;20218;-91
2023/01/10 04:41:49;;;;;;;7.80;3.30;;;6.50;99.90;;;;;;5016189;28;20220;-91
2023/01/10 04:44:16;;;;;;;14.13;3.63;;;6.50;99.90;;;;;;5016440;28;20220;-91
2023/01/10 04:46:43;;;;;;;13.20;4.13;;;6.50;99.90;;;;;;5016244;28;20228;-91
2023/01/10 04:49:10;;;;;;;11.27;3.97;;;6.50;99.90;;;;;;5016216;28;20200;-91
2023/01/10 04:51:36;;;;;;;10.23;3.77;;;6.60;99.90;;;;;;5016109;28;20215;-91
2023/01/10 04:54:03;;;;;;;10.70;3.20;;;6.60;99.90;;;;;;5016081;28;20216;-92
2023/01/10 04:56:32;;;;;;;8.57;3.87;;;6.50;99.90;;;;;;5016520;28;20662;-91
2023/01/10 04:58:58;;;;;;;9.43;4.27;;;6.70;99.90;;;;;;5016129;28;20662;-90
2023/01/10 05:01:26;;;;;;;13.90;4.37;;;6.50;99.90;;;;;;5015689;28;20220;-92
2023/01/10 05:03:54;;;;;;;12.63;4.10;;;6.50;99.90;;;;;;5016025;28;20216;-90
2023/01/10 05:06:23;;;;;;;12.47;3.90;;;6.40;99.90;;;;;;5015909;28;20208;-91
2023/01/10 05:08:50;;;;;;;8.77;3.57;;;6.40;99.90;;;;;;5015876;28;20211;-90
2023/01/10 05:11:16;;;;;;;8.23;3.53;;;6.40;99.90;;;;;;5015867;28;20208;-91
2023/01/10 05:13:45;;;;;;;10.47;4.17;;;6.50;99.90;;;;;;5015614;28;20212;-91
2023/01/10 05:16:11;;;;;;;11.67;3.97;;;6.50;99.90;;;;;;5015739;28;20204;-91
2023/01/10 05:18:38;;;;;;;13.50;3.63;;;6.50;99.90;;;;;;5015347;28;20220;-91
2023/01/10 05:21:07;;;;;;;8.27;4.30;;;6.40;99.90;;;;;;5015546;28;20291;-91
2023/01/10 05:23:34;;;;;;;9.33;3.87;;;6.40;99.90;;;;;;5015601;28;20208;-91
2023/01/10 05:26:06;;;;;;;13.77;4.07;;;6.30;99.90;;;;;;5015714;28;20212;-91
2023/01/10 05:28:33;;;;;;;14.33;3.97;;;6.30;99.90;;;;;;5015269;28;20243;-92
2023/01/10 05:31:01;;;;;;;15.20;4.10;;;6.40;99.90;;;;;;5015693;28;20727;-91
2023/01/10 05:33:28;;;;;;;18.50;4.83;;;6.20;99.90;;;;;;5015009;28;20208;-91
2023/01/10 05:35:55;;;;;;;11.30;3.80;;;6.10;99.90;;;;;;5014903;28;20215;-91
2023/01/10 05:38:22;;;;;;;11.80;3.87;;;6.10;99.90;;;;;;5022552;28;20219;-90
2023/01/10 05:40:54;;;;;;;12.20;4.70;;;6.20;99.90;;;;;;5018835;28;20207;-91
2023/01/10 05:43:21;;;;;;;12.37;4.20;;;6.10;99.90;;;;;;5022361;28;20216;-92
2023/01/10 05:45:48;;;;;;;15.07;4.70;;;6.00;99.90;;;;;;5011657;28;20283;-90
2023/01/10 05:48:16;;;;;;;14.03;4.37;;;6.00;99.90;;;;;;5022176;28;20239;-91
2023/01/10 05:50:43;;;;;;;13.27;3.60;;;5.90;99.90;;;;;;5014200;28;20583;-91
2023/01/10 05:53:10;;;;;;;10.67;4.30;;;5.90;99.90;;;;;;5014423;28;20223;-90
2023/01/10 05:55:36;;;;;;;10.50;4.37;;;5.80;99.90;;;;;;5014727;28;20219;-91
2023/01/10 05:58:03;;;;;;;11.37;5.23;;;5.80;99.90;;;;;;5013302;28;20239;-91
2023/01/10 06:00:30;;;;;;;10.67;4.70;;;5.70;99.90;;;;;;5013644;28;20214;-91
2023/01/10 06:02:57;;;;;;;12.57;6.00;;;5.80;99.90;;;;;;5014168;28;20231;-90
2023/01/10 06:05:25;;;;;;;15.37;5.03;;;5.80;99.90;;;;;;5015073;28;20208;-91
2023/01/10 06:07:52;;;;;;;14.23;6.30;;;5.80;99.90;;;;;;5015576;28;20227;-89
2023/01/10 06:10:19;;;;;;;14.10;5.50;;;5.70;99.90;;;;;;5015632;28;20196;-91
2023/01/10 06:12:48;;;;;;;15.63;4.80;;;5.70;99.90;;;;;;5014999;28;20580;-90
2023/01/10 06:15:16;;;;;;;8.50;5.23;;;5.60;99.90;;;;;;5015152;28;20212;-91
2023/01/10 06:17:44;;;;;;;15.20;6.37;;;5.60;99.90;;;;;;5015271;28;20587;-91
2023/01/10 06:20:12;;;;;;;17.67;5.47;;;5.60;99.90;;;;;;5015098;28;20204;-91
2023/01/10 06:22:41;;;;;;;18.80;6.37;;;5.60;99.90;;;;;;5014331;28;20231;-91
2023/01/10 06:25:09;;;;;;;15.93;5.57;;;5.60;99.90;;;;;;5014504;28;20200;-91
2023/01/10 06:27:38;;;;;;;16.60;5.60;;;5.60;99.90;;;;;;5014372;28;20246;-91
2023/01/10 06:30:05;;;;;;;15.30;5.37;;;5.60;99.90;;;;;;5014556;28;20208;-91
2023/01/10 06:32:32;;;;;;;17.87;6.13;;;5.50;99.90;;;;;;5014248;28;20204;-91
2023/01/10 06:34:59;;;;;;;15.73;5.97;;;5.50;99.90;;;;;;5014551;28;20212;-91
2023/01/10 06:37:26;;;;;;;15.73;6.60;;;5.50;99.90;;;;;;5014252;28;20228;-91
2023/01/10 06:39:54;;;;;;;16.13;5.93;;;5.50;99.90;;;;;;5014344;28;20218;-90
2023/01/10 06:45:44;;;;;;;17.60;6.87;;;5.50;99.90;;;;;;5014061;28;20220;-91
2023/01/10 06:48:10;;;;;;;14.20;6.27;;;5.50;99.90;;;;;;5039717;22;20592;-84
2023/01/10 06:50:37;;;;;;;18.47;6.40;;;5.70;99.90;;;;;;5019597;28;20299;-84
2023/01/10 06:53:05;;;;;;;14.97;6.50;;;5.70;99.90;;;;;;5017327;28;20226;-84
2023/01/10 06:55:33;;;;;;;14.37;6.47;;;5.80;99.90;;;;;;5017966;28;20294;-84
2023/01/10 06:58:01;;;;;;;14.63;6.80;;;5.80;99.90;;;;;;5017330;28;20674;-85
2023/01/10 07:00:30;;;;;;;17.13;7.00;;;5.80;99.90;;;;;;5017987;28;20192;-85
2023/01/10 07:02:59;;;;;;;16.60;6.50;;;5.90;99.90;;;;;;5016826;28;20235;-84
2023/01/10 07:05:26;;;;;;;16.60;6.47;;;5.90;99.90;;;;;;5017594;28;20744;-84
2023/01/10 07:07:53;;;;;;;22.67;6.93;;;6.00;99.90;;;;;;5018020;28;20204;-84
2023/01/10 07:10:19;;;;;;;17.47;7.20;;;6.10;99.90;;;;;;5018110;28;20204;-83
2023/01/10 07:12:48;;;;;;;16.37;7.03;;;6.10;99.90;;;;;;5017365;28;20232;-84
2023/01/10 07:15:14;;;;;;;17.43;7.40;;;6.20;99.90;;;;;;5017020;28;20292;-84
2023/01/10 07:17:41;;;;;;;18.10;7.27;;;6.20;99.90;;;;;;5017251;28;20230;-84
2023/01/10 07:20:09;;;;;;;16.43;7.07;;;6.20;99.90;;;;;;5017649;28;20215;-84
2023/01/10 07:22:36;;;;;;;18.17;7.63;;;6.20;99.90;;;;;;5016663;28;20224;-83
2023/01/10 07:25:03;;;;;;;19.00;7.70;;;6.20;99.90;;;;;;5017453;28;20204;-84
2023/01/10 07:27:31;;;;;;;15.40;7.97;;;6.20;99.90;;;;;;5017378;28;20653;-83
2023/01/10 07:29:59;;;;;;;18.63;8.77;;;6.20;99.90;;;;;;5017260;28;20208;-84
2023/01/10 07:32:26;;;;;;;15.00;8.00;;;6.20;99.90;;;;;;5016842;28;20243;-84
2023/01/10 07:34:53;;;;;;;21.60;9.27;;;6.30;99.90;;;;;;5016534;28;20294;-85
2023/01/10 07:37:20;;;;;;;16.90;8.10;;;6.30;99.90;;;;;;5020205;28;20207;-84
2023/01/10 07:39:47;;;;;;;15.40;8.23;;;6.30;99.90;;;;;;5026733;28;20210;-83
2023/01/10 07:42:14;;;;;;;16.53;8.60;;;6.30;99.90;;;;;;5006504;28;20283;-85
2023/01/10 07:44:41;;;;;;;23.17;9.43;;;6.30;99.90;;;;;;5011574;28;20209;-84
2023/01/10 07:47:09;;;;;;;20.17;9.70;;;6.30;99.90;;;;;;4996029;28;20224;-87
2023/01/10 07:49:36;;;;;;;17.20;9.60;;;6.40;99.90;;;;;;4998051;28;20215;-86
2023/01/10 07:52:03;;;;;;;23.73;9.90;;;6.40;99.90;;;;;;4995710;28;20585;-85
2023/01/10 07:54:30;;;;;;;21.03;10.67;;;6.40;99.90;;;;;;4996099;28;20213;-85
2023/01/10 07:57:00;;;;;;;22.00;10.27;;;6.40;99.90;;;;;;4997003;28;20209;-84
2023/01/10 07:59:27;;;;;;;17.77;9.63;;;6.40;99.90;;;;;;4995462;28;20216;-83
2023/01/10 08:01:54;;;;;;;19.00;9.83;;;6.50;99.90;;;;;;4996794;28;20225;-83
2023/01/10 08:04:22;;;;;;;20.73;10.87;;;6.50;99.90;;;;;;4996677;28;20232;-85
2023/01/10 08:06:50;;;;;;;19.73;10.40;;;6.50;99.90;;;;;;4996493;28;20585;-84
2023/01/10 08:09:17;;;;;;;23.57;10.70;;;6.50;99.90;;;;;;4995619;28;20259;-85
2023/01/10 08:11:44;;;;;;;24.90;11.17;;;6.60;99.90;;;;;;4995886;28;20235;-83
2023/01/10 08:14:11;;;;;;;22.47;11.37;;;6.50;99.90;;;;;;5006939;28;20267;-84
2023/01/10 08:16:37;;;;;;;19.07;10.70;;;6.60;99.90;;;;;;5017713;28;20228;-85
2023/01/10 08:19:04;;;;;;;19.63;10.13;;;6.60;99.90;;;;;;5011504;28;20208;-84
2023/01/10 08:21:32;;;;;;;17.70;10.17;;;6.60;99.90;;;;;;5015873;28;20652;-83
2023/01/10 08:23:59;;;;;;;20.90;9.47;;;6.60;99.90;;;;;;5015421;28;20231;-84
2023/01/10 08:26:26;;;;;;;20.07;9.20;;;6.60;99.90;;;;;;5015326;28;20207;-84
2023/01/10 08:28:53;;;;;;;16.80;9.33;;;6.70;99.90;;;;;;5015941;28;20207;-84
2023/01/10 08:31:19;;;;;;;22.00;9.67;;;6.80;99.90;;;;;;5001981;28;20271;-83
2023/01/10 08:33:46;;;;;;;19.33;9.90;;;7.00;99.90;;;;;;4996613;28;20229;-84
2023/01/10 08:36:17;;;;;;;19.53;9.97;;;7.10;99.90;;;;;;4996420;28;20650;-84
2023/01/10 08:38:46;;;;;;;17.67;9.07;;;7.30;99.90;;;;;;4996693;28;20209;-84
2023/01/10 08:41:13;;;;;;;15.33;8.40;;;7.30;99.90;;;;;;4995545;28;20295;-85
2023/01/10 08:43:40;;;;;;;17.47;7.90;;;7.20;99.90;;;;;;4997382;28;20243;-84
2023/01/10 08:46:07;;;;;;;15.23;7.63;;;7.10;99.90;;;;;;5000257;28;20205;-84
2023/01/10 08:48:34;;;;;;;20.30;9.60;;;7.10;99.90;;;;;;5005905;28;20216;-84
2023/01/10 08:51:06;;;;;;;16.57;8.33;;;7.00;99.90;;;;;;5019217;28;20204;-84
2023/01/10 08:53:32;;;;;;;19.30;8.70;;;7.00;99.90;;;;;;5019277;28;20236;-84
2023/01/10 08:56:00;;;;;;;17.93;8.50;;;7.00;99.90;;;;;;5018996;28;20216;-83
2023/01/10 08:58:27;;;;;;;18.27;8.57;;;6.90;99.90;;;;;;5018687;28;20502;-83
2023/01/10 09:00:54;;;;;;;15.83;7.93;;;6.90;99.90;;;;;;5018198;28;20555;-83
2023/01/10 09:03:21;;;;;;;14.27;7.70;;;6.90;99.90;;;;;;5018260;28;20224;-84
2023/01/10 09:05:48;;;;;;;20.20;8.40;;;6.90;99.90;;;;;;5011894;28;20259;-84
2023/01/10 09:08:14;;;;;;;15.60;8.60;;;7.00;99.90;;;;;;5018543;28;20204;-84
2023/01/10 09:10:41;;;;;;;22.57;10.67;;;7.10;99.90;;;;;;5015538;28;20208;-84
2023/01/10 09:13:09;;;;;;;19.87;8.23;;;7.10;99.90;;;;;;5011199;28;20278;-84
2023/01/10 09:15:38;;;;;;;16.57;8.30;;;7.10;99.90;;;;;;5015626;28;20208;-84
2023/01/10 09:18:06;;;;;;;21.30;9.40;;;7.00;99.90;;;;;;5018828;28;20204;-85
2023/01/10 09:20:35;;;;;;;18.17;8.77;;;7.00;99.90;;;;;;5025803;28;20210;-85
2023/01/10 09:23:05;;;;;;;17.77;9.17;;;7.00;99.90;;;;;;5020901;28;20224;-84
2023/01/10 09:25:32;;;;;;;19.80;9.33;;;7.00;99.90;;;;;;5017556;28;20210;-84
2023/01/10 09:27:59;;;;;;;19.07;9.10;;;7.00;99.90;;;;;;5016802;28;20214;-84
2023/01/10 09:30:29;;;;;;;19.40;8.77;;;7.10;99.90;;;;;;5004618;28;20205;-84
2023/01/10 09:32:57;;;;;;;19.13;9.97;;;7.10;99.90;;;;;;4996887;28;20224;-83
2023/01/10 09:35:25;;;;;;;20.77;10.40;;;7.10;99.90;;;;;;4998491;28;20213;-84
2023/01/10 09:37:54;;;;;;;19.40;8.63;;;7.20;99.90;;;;;;4997507;28;20209;-85
2023/01/10 09:40:28;;;;;;;19.23;7.53;;;7.20;99.90;;;;;;4996569;28;20224;-83
2023/01/10 09:43:05;;;;;;;18.90;7.57;;;7.30;99.90;;;;;;4997386;28;20681;-83
2023/01/10 09:45:42;;;;;;;17.57;8.57;;;7.40;99.90;;;;;;4998316;28;20205;-82
2023/01/10 09:48:15;;;;;;;17.70;8.13;;;7.40;99.90;;;;;;4997921;28;20280;-84
2023/01/10 09:50:50;;;;;;;15.37;7.50;;;7.30;99.90;;;;;;5015953;28;20647;-83
2023/01/10 09:53:20;;;;;;;21.27;8.33;;;7.40;99.90;;;;;;5017567;28;20216;-85
2023/01/10 09:55:52;;;;;;;23.03;8.67;;;7.30;99.90;;;;;;5008408;28;20199;-85
2023/01/10 09:58:22;;;;;;;17.70;8.70;;;7.40;99.90;;;;;;5017181;28;20284;-84
2023/01/10 10:00:55;;;;;;;19.40;8.90;;;7.40;99.90;;;;;;5004418;28;20216;-84
2023/01/10 10:03:27;;;;;;;15.37;7.03;;;7.40;99.90;;;;;;4997031;28;20236;-84
2023/01/10 10:05:54;;;;;;;15.23;8.10;;;7.40;99.90;;;;;;4997623;28;20209;-84
2023/01/10 10:08:21;;;;;;;17.17;7.80;;;7.40;99.90;;;;;;4997917;28;20219;-84
2023/01/10 10:11:00;;;;;;;19.13;8.23;;;7.40;99.90;;;;;;4997878;28;20205;-85
2023/01/10 10:13:39;;;;;;;18.27;7.90;;;7.40;99.90;;;;;;4997284;28;20252;-84
2023/01/10 10:16:20;;;;;;;22.73;9.13;;;7.40;99.90;;;;;;4998191;28;20223;-85
2023/01/10 10:18:58;;;;;;;19.63;8.73;;;7.40;99.90;;;;;;4997601;28;20212;-85
2023/01/10 10:21:36;;;;;;;23.53;10.17;;;7.50;99.90;;;;;;4998650;28;20236;-85
2023/01/10 10:24:22;;;;;;;22.90;9.33;;;7.50;99.90;;;;;;4997431;28;20224;-85
2023/01/10 10:26:57;;;;;;;25.40;9.80;;;7.50;99.90;;;;;;4998025;28;20212;-86
2023/01/10 10:29:50;;;;;;;24.17;10.10;;;7.60;99.90;;;;;;4997622;28;20213;-85
2023/01/10 10:32:28;;;;;;;21.13;9.43;;;7.70;99.90;;;;;;4997359;28;20229;-84
2023/01/10 10:35:00;;;;;;;24.23;10.27;;;8.00;99.90;;;;;;4997978;28;20211;-84
2023/01/10 10:37:32;;;;;;;25.63;10.27;;;8.00;99.90;;;;;;4997518;28;20351;-84
2023/01/10 10:40:02;;;;;;;25.57;9.77;;;7.90;99.90;;;;;;4997958;28;20240;-83
2023/01/10 10:42:32;;;;;;;21.23;9.30;;;7.90;99.90;;;;;;4996902;28;20225;-84
2023/01/10 10:45:03;;;;;;;25.00;9.87;;;8.10;99.90;;;;;;4997448;28;20235;-85
2023/01/10 10:47:35;;;;;;;25.20;9.37;;;8.10;99.90;;;;;;4997676;28;20228;-85
2023/01/10 10:50:11;;;;;;;17.93;8.60;;;8.20;99.90;;;;;;4997744;28;20205;-84
2023/01/10 10:52:38;;;;;;;16.90;8.07;;;8.10;99.90;;;;;;4997213;28;20229;-85
2023/01/10 10:55:06;;;;;;;18.87;7.80;;;8.00;99.90;;;;;;4997946;28;20661;-84
2023/01/10 10:57:38;;;;;;;18.17;7.50;;;7.90;99.90;;;;;;4996776;28;20270;-83
2023/01/10 11:00:07;;;;;;;14.30;7.20;;;7.80;99.90;;;;;;4996396;28;20665;-84
2023/01/10 11:02:43;;;;;;;17.00;7.27;;;7.70;99.90;;;;;;4995932;28;20593;-84
2023/01/10 11:05:17;;;;;;;16.27;7.53;;;7.70;99.90;;;;;;4996894;28;20731;-84
2023/01/10 11:07:44;;;;;;;18.13;7.60;;;7.70;99.90;;;;;;4997091;28;20205;-85
2023/01/10 11:13:02;;;;;;;18.60;7.77;;;7.80;99.90;;;;;;4995518;28;20216;-84
2023/01/10 11:15:37;;;;;;;21.53;8.07;;;7.90;99.90;;;;;;4996569;28;20287;-84
2023/01/10 11:18:10;;;;;;;23.47;6.83;;;7.80;99.90;;;;;;4996102;28;20204;-85
2023/01/10 11:20:37;;;;;;;14.67;7.00;;;7.80;99.90;;;;;;4996899;28;20562;-84
2023/01/10 11:23:04;;;;;;;16.80;7.10;;;7.90;99.90;;;;;;4995681;28;20641;-83
2023/01/10 11:25:32;;;;;;;18.97;7.70;;;7.80;99.90;;;;;;4996582;28;20739;-84
2023/01/10 11:28:00;;;;;;;23.43;8.03;;;7.80;99.90;;;;;;4996678;28;20288;-83
2023/01/10 11:30:30;;;;;;;24.80;7.93;;;7.80;99.90;;;;;;4996363;28;20197;-85
2023/01/10 11:33:00;;;;;;;20.87;8.00;;;7.70;99.90;;;;;;4996474;28;20221;-84
2023/01/10 11:35:34;;;;;;;20.07;8.10;;;7.80;99.90;;;;;;4996334;28;20268;-84
2023/01/10 11:38:02;;;;;;;18.80;7.40;;;7.80;99.90;;;;;;4996286;28;20751;-85
2023/01/10 11:40:30;;;;;;;18.60;7.70;;;7.90;99.90;;;;;;4996029;28;20199;-85
2023/01/10 11:42:59;;;;;;;22.13;8.27;;;8.00;99.90;;;;;;4995591;28;20332;-84
2023/01/10 11:45:30;;;;;;;18.33;6.87;;;8.00;99.90;;;;;;4996220;28;20208;-84
2023/01/10 11:48:06;;;;;;;20.10;7.80;;;8.00;99.90;;;;;;4996044;28;20221;-86
2023/01/10 11:50:36;;;;;;;15.47;6.60;;;8.00;99.90;;;;;;5007866;28;20267;-84
2023/01/10 11:53:06;;;;;;;19.07;6.30;;;8.10;99.90;;;;;;5015161;28;20254;-84
2023/01/10 11:55:34;;;;;;;18.30;6.30;;;8.10;99.90;;;;;;5017402;28;20199;-85
2023/01/10 11:58:05;;;;;;;21.07;6.77;;;8.10;99.90;;;;;;5019978;28;20217;-84
2023/01/10 12:00:39;;;;;;;15.77;6.00;;;8.20;99.90;;;;;;5021273;28;20219;-84
2023/01/10 12:03:25;;;;;;;13.53;6.53;;;8.20;99.90;;;;;;5010227;28;20311;-85
2023/01/10 12:05:56;;;;;;;15.93;6.10;;;8.20;99.90;;;;;;5014767;28;20207;-84
2023/01/10 12:08:30;;;;;;;20.17;7.80;;;8.20;99.90;;;;;;5015215;28;20581;-84
2023/01/10 12:11:03;;;;;;;14.83;6.17;;;8.20;99.90;;;;;;5014650;28;20200;-84
2023/01/10 12:13:43;;;;;;;19.37;6.20;;;8.10;99.90;;;;;;5015057;28;20254;-84
2023/01/10 12:16:22;;;;;;;18.57;6.00;;;8.10;99.90;;;;;;5015714;28;20251;-84
2023/01/10 12:18:50;;;;;;;18.77;6.23;;;8.10;99.90;;;;;;5016217;28;20579;-85
2023/01/10 12:21:23;;;;;;;21.83;7.57;;;8.10;99.90;;;;;;5020127;28;20699;-86
2023/01/10 12:23:51;;;;;;;15.80;5.70;;;8.20;99.90;;;;;;5000458;28;20316;-84
2023/01/10 12:26:18;;;;;;;17.23;6.40;;;8.20;99.90;;;;;;5001314;28;20212;-85
2023/01/10 12:28:51;;;;;;;15.23;6.27;;;8.20;99.90;;;;;;5019894;28;20212;-86
2023/01/10 12:31:21;;;;;;;14.67;5.40;;;8.30;99.90;;;;;;5019446;28;20216;-83
2023/01/10 12:33:54;;;;;;;17.50;5.83;;;8.30;99.90;;;;;;5018856;28;20561;-85
2023/01/10 12:36:36;;;;;;;21.80;5.93;;;8.30;99.90;;;;;;5019848;28;20204;-85
2023/01/10 12:39:13;;;;;;;15.17;5.57;;;8.40;99.90;;;;;;5019561;28;20195;-85
2023/01/10 12:44:45;;;;;;;19.00;5.83;;;8.40;99.90;;;;;;5010367;28;20286;-83
2023/01/10 12:47:22;;;;;;;16.17;5.47;;;8.40;99.90;;;;;;5015298;28;20220;-84
2023/01/10 12:49:53;;;;;;;19.50;6.90;;;8.40;99.90;;;;;;5019956;28;20196;-84
2023/01/10 12:52:29;;;;;;;16.77;5.10;;;8.40;99.90;;;;;;5019676;28;20231;-83
2023/01/10 12:54:56;;;;;;;15.63;5.30;;;8.30;99.90;;;;;;5019607;28;20188;-84
2023/01/10 12:57:28;;;;;;;21.57;8.10;;;8.30;99.90;;;;;;5019858;28;20585;-86
2023/01/10 12:59:59;;;;;;;20.37;8.23;;;8.30;99.90;;;;;;5020685;28;20194;-85
2023/01/10 13:02:30;;;;;;;15.60;6.33;;;8.30;99.90;;;;;;5019649;28;20224;-84
2023/01/10 13:05:00;;;;;;;16.10;7.30;;;8.30;99.90;;;;;;5017690;28;20210;-86
2023/01/10 13:07:32;;;;;;;17.03;6.77;;;8.20;99.90;;;;;;5019854;28;20197;-86
2023/01/10 13:10:01;;;;;;;18.20;6.43;;;8.20;99.90;;;;;;5018739;28;20212;-90
2023/01/10 13:12:34;;;;;;;16.23;5.27;;;8.10;99.90;;;;;;5019171;28;20234;-84